Time;durP1;ratioP1;P1;durP2;ratioP2;P2;SDS_P1;SDS_P2;PMS_P1;PMS_P2;Temp;Humidity;BMP_temperature;BMP_pressure;BME280_temperature;BME280_humidity;BME280_pressure;Samples;Min_cycle;Max_cycle;Signal;HPM_P1;HPM_P2
2023/10/12 00:02:04;;;;;;;8.67;3.27;;;;;;;10.83;50.45;101278.42;124875;1102;101759;-85
2023/10/12 00:04:38;;;;;;;11.27;3.50;;;;;;;10.85;50.64;101275.88;124926;1102;104102;-82
2023/10/12 00:07:15;;;;;;;6.03;3.60;;;;;;;10.85;51.07;101271.52;124887;1102;104223;-82
2023/10/12 00:09:48;;;;;;;14.10;3.50;;;;;;;10.86;51.12;101272.40;124954;1102;101830;-84
2023/10/12 00:12:23;;;;;;;9.10;3.43;;;;;;;10.86;51.23;101272.40;124846;1102;101904;-83
2023/10/12 00:14:55;;;;;;;6.83;3.60;;;;;;;10.87;51.10;101271.59;124860;1102;101964;-82
2023/10/12 00:17:26;;;;;;;5.93;3.00;;;;;;;10.87;51.37;101264.59;124980;1102;104220;-85
2023/10/12 00:19:58;;;;;;;8.37;3.20;;;;;;;10.87;51.55;101266.33;124892;1102;102581;-83
2023/10/12 00:22:30;;;;;;;10.20;3.47;;;;;;;10.86;51.26;101261.90;124912;1102;104297;-86
2023/10/12 00:25:04;;;;;;;7.57;3.30;;;;;;;10.87;51.84;101255.83;124742;1102;104290;-84
2023/10/12 00:27:38;;;;;;;9.65;3.65;;;;;;;10.86;51.53;101257.56;124966;1101;102038;-83
2023/10/12 00:30:12;;;;;;;8.97;3.40;;;;;;;10.86;51.63;101251.39;124940;1101;104169;-84
2023/10/12 00:32:44;;;;;;;8.37;3.07;;;;;;;10.86;51.88;101252.31;124879;1101;104169;-86
2023/10/12 00:35:17;;;;;;;8.00;3.27;;;;;;;10.88;52.15;101252.39;124890;1102;103180;-87
2023/10/12 00:37:49;;;;;;;8.30;3.10;;;;;;;10.87;52.13;101248.84;124838;1102;102130;-84
2023/10/12 00:40:25;;;;;;;7.30;3.13;;;;;;;10.87;51.93;101254.09;124998;1102;101824;-87
2023/10/12 00:42:59;;;;;;;8.27;3.30;;;;;;;10.88;52.67;101247.14;124919;1102;104281;-84
2023/10/12 00:45:32;;;;;;;7.13;3.40;;;;;;;10.89;52.23;101247.21;124863;1102;104281;-84
2023/10/12 00:48:07;;;;;;;7.72;3.20;;;;;;;10.90;52.64;101240.22;124887;1102;104175;-85
2023/10/12 00:50:43;;;;;;;8.60;3.37;;;;;;;10.89;52.79;101234.08;124904;1102;104220;-85
2023/10/12 00:53:22;;;;;;;9.37;3.43;;;;;;;10.89;52.68;101236.70;124965;1102;101791;-84
2023/10/12 00:55:56;;;;;;;8.83;3.47;;;;;;;10.89;53.04;101230.53;124917;1101;101956;-82
2023/10/12 00:58:27;;;;;;;11.67;3.47;;;;;;;10.89;53.21;101230.53;124884;1102;104374;-84
2023/10/12 01:01:03;;;;;;;6.67;3.30;;;;;;;10.88;53.21;101234.02;124964;1102;102259;-85
2023/10/12 01:03:36;;;;;;;8.30;3.47;;;;;;;10.88;53.83;101228.76;124864;1102;104319;-87
2023/10/12 01:06:28;;;;;;;9.73;3.40;;;;;;;10.87;53.48;101230.47;125021;1102;104233;-85
2023/10/12 01:09:04;;;;;;;10.30;3.43;;;;;;;10.87;53.43;101233.09;124804;1102;104275;-83
2023/10/12 01:11:37;;;;;;;6.37;3.20;;;;;;;10.87;53.53;101230.47;124861;1102;102284;-84
2023/10/12 01:14:09;;;;;;;11.43;3.40;;;;;;;10.87;53.79;101232.20;124996;1102;102444;-87
2023/10/12 01:16:45;;;;;;;9.93;4.03;;;;;;;10.88;53.50;101228.76;125003;1102;104191;-84
2023/10/12 01:19:22;;;;;;;8.60;3.33;;;;;;;10.87;53.68;101226.95;125051;1102;102169;-84
2023/10/12 01:21:54;;;;;;;8.70;2.90;;;;;;;10.86;53.96;101214.64;124950;1101;104211;-87
2023/10/12 01:24:30;;;;;;;5.93;3.30;;;;;;;10.84;54.09;101211.94;124923;1102;104169;-86
2023/10/12 01:27:01;;;;;;;10.33;3.83;;;;;;;10.84;54.51;101205.80;124844;1102;104283;-84
2023/10/12 01:29:35;;;;;;;6.83;3.30;;;;;;;10.83;54.03;101206.63;125096;1102;104178;-84
2023/10/12 01:32:22;;;;;;;9.40;3.37;;;;;;;10.82;53.90;101208.36;125164;1102;102035;-86
2023/10/12 01:34:56;;;;;;;12.03;3.57;;;;;;;10.82;54.03;101203.11;124891;1102;102377;-84
2023/10/12 01:37:28;;;;;;;10.43;4.20;;;;;;;10.81;54.52;101197.79;124875;1102;104192;-84
2023/10/12 01:40:12;;;;;;;9.13;3.77;;;;;;;10.81;54.55;101200.41;124882;1102;104188;-85
2023/10/12 01:42:49;;;;;;;6.63;3.13;;;;;;;10.79;54.56;101198.60;124833;1102;101934;-86
2023/10/12 01:45:33;;;;;;;7.33;3.20;;;;;;;10.81;55.09;101205.66;124958;1102;101996;-86
2023/10/12 01:48:11;;;;;;;7.47;3.50;;;;;;;10.79;54.77;101198.60;124987;1102;104175;-88
2023/10/12 01:50:43;;;;;;;8.27;3.73;;;;;;;10.78;55.01;101209.95;124994;1102;104229;-85
2023/10/12 01:53:25;;;;;;;8.70;3.20;;;;;;;10.77;55.21;101202.01;124949;1102;102096;-85
2023/10/12 01:55:58;;;;;;;12.77;3.67;;;;;;;10.77;55.27;101202.01;124733;1102;104341;-86
2023/10/12 01:58:35;;;;;;;7.53;3.80;;;;;;;10.75;55.20;101196.69;124773;1102;101944;-85
2023/10/12 02:01:07;;;;;;;6.13;3.10;;;;;;;10.74;55.24;101200.13;124875;1102;104278;-86
2023/10/12 02:03:42;;;;;;;10.70;3.70;;;;;;;10.73;55.69;101194.81;124979;1102;104456;-85
2023/10/12 02:06:17;;;;;;;7.93;3.30;;;;;;;10.71;55.56;101196.47;124932;1102;104291;-87
2023/10/12 02:08:52;;;;;;;9.13;3.33;;;;;;;10.69;55.74;101188.53;124980;1102;101868;-87
2023/10/12 02:11:36;;;;;;;14.57;4.20;;;;;;;10.66;56.06;101188.39;124899;1102;104281;-85
2023/10/12 02:14:11;;;;;;;10.25;3.85;;;;;;;10.64;56.31;101184.77;124883;1102;102093;-85
2023/10/12 02:16:53;;;;;;;10.73;4.00;;;;;;;10.62;55.90;101178.56;124827;1102;104217;-83
2023/10/12 02:19:31;;;;;;;7.90;3.60;;;;;;;10.60;55.84;101181.11;124877;1102;102076;-83
2023/10/12 02:22:03;;;;;;;7.87;3.90;;;;;;;10.58;56.09;101177.53;124747;1102;104715;-83
2023/10/12 02:24:35;;;;;;;6.17;3.43;;;;;;;10.56;56.58;101170.41;124859;1102;104137;-83
2023/10/12 02:27:07;;;;;;;8.20;3.73;;;;;;;10.54;56.30;101165.09;124873;1101;104188;-83
2023/10/12 02:29:39;;;;;;;9.87;3.80;;;;;;;10.54;56.15;101172.06;124930;1101;107504;-85
2023/10/12 02:32:22;;;;;;;9.07;3.87;;;;;;;10.51;56.40;101170.19;124789;1102;102284;-86
2023/10/12 02:34:57;;;;;;;11.93;3.90;;;;;;;10.50;56.53;101170.12;124897;1101;101910;-83
2023/10/12 02:37:28;;;;;;;8.37;3.73;;;;;;;10.47;56.96;101167.35;124892;1102;102297;-81
2023/10/12 02:39:59;;;;;;;8.70;3.83;;;;;;;10.45;57.08;101169.02;124932;1102;104226;-83
2023/10/12 02:42:42;;;;;;;9.63;4.10;;;;;;;10.43;57.09;101167.20;124860;1102;102090;-83
2023/10/12 02:45:21;;;;;;;10.60;4.20;;;;;;;10.43;56.66;101171.56;124888;1102;104070;-84
2023/10/12 02:47:52;;;;;;;10.20;3.80;;;;;;;10.43;56.82;101167.20;124806;1102;104163;-82
2023/10/12 02:50:42;;;;;;;8.90;4.00;;;;;;;10.42;57.44;101168.05;124933;1102;102134;-83
2023/10/12 02:53:17;;;;;;;13.53;4.10;;;;;;;10.42;57.06;101169.76;124851;1102;104185;-83
2023/10/12 02:55:50;;;;;;;10.93;3.97;;;;;;;10.40;57.61;101160.92;124924;1102;104277;-83
2023/10/12 02:58:23;;;;;;;10.53;4.10;;;;;;;10.39;57.28;101169.61;124855;1102;101868;-83
2023/10/12 03:00:58;;;;;;;11.78;3.62;;;;;;;10.38;57.13;101168.73;124868;1102;101877;-83
2023/10/12 03:03:36;;;;;;;10.63;3.90;;;;;;;10.35;57.33;101158.09;124892;1101;102089;-83
2023/10/12 03:06:09;;;;;;;12.47;4.33;;;;;;;10.34;57.25;101158.90;124874;1102;104252;-82
2023/10/12 03:09:02;;;;;;;8.58;3.92;;;;;;;10.34;57.16;101160.64;124887;1102;104249;-82
2023/10/12 03:11:34;;;;;;;8.93;4.20;;;;;;;10.32;57.57;101155.28;124880;1102;102221;-82
2023/10/12 03:14:13;;;;;;;12.23;4.17;;;;;;;10.31;57.49;101165.70;124912;1102;104230;-83
2023/10/12 03:16:47;;;;;;;11.73;4.33;;;;;;;10.30;57.74;101151.70;124838;1102;104153;-83
2023/10/12 03:19:22;;;;;;;10.93;4.00;;;;;;;10.30;58.15;101154.33;124872;1102;102234;-83
2023/10/12 03:22:03;;;;;;;14.10;4.20;;;;;;;10.29;58.02;101154.25;124940;1102;104339;-83
2023/10/12 03:24:43;;;;;;;10.63;4.13;;;;;;;10.27;57.99;101151.55;124827;1101;104227;-83
2023/10/12 03:27:17;;;;;;;11.63;3.70;;;;;;;10.24;57.86;101152.30;124872;1101;103346;-83
2023/10/12 03:29:56;;;;;;;11.93;4.47;;;;;;;10.24;58.38;101144.42;124875;1102;101820;-83
2023/10/12 03:32:27;;;;;;;11.80;3.97;;;;;;;10.19;58.28;101145.95;124822;1102;104341;-84
2023/10/12 03:34:59;;;;;;;11.13;4.40;;;;;;;10.17;58.55;101141.44;124915;1102;101916;-83
2023/10/12 03:43:25;;;;;;;9.70;4.17;;;;;;;10.14;59.04;101146.54;124825;1102;101935;-83
2023/10/12 03:46:16;;;;;;;9.97;3.93;;;;;;;10.10;58.84;101141.96;124847;1102;102075;-82
2023/10/12 03:49:04;;;;;;;14.00;4.03;;;;;;;10.05;58.75;101132.17;124871;1102;101993;-83
2023/10/12 03:51:40;;;;;;;15.17;5.37;;;;;;;10.02;58.34;101133.73;124866;1102;101887;-83
2023/10/12 03:54:18;;;;;;;16.83;5.13;;;;;;;10.01;58.69;101143.33;124844;1102;104205;-83
2023/10/12 03:56:50;;;;;;;10.93;4.50;;;;;;;10.01;59.04;101134.58;124946;1103;104268;-83
2023/10/12 03:59:27;;;;;;;11.13;4.37;;;;;;;9.99;58.99;101142.36;125116;1102;101903;-84
2023/10/12 04:02:00;;;;;;;11.27;4.23;;;;;;;9.98;58.61;101148.42;124993;1102;107942;-83
2023/10/12 04:04:34;;;;;;;16.20;3.90;;;;;;;9.96;59.36;101163.19;124826;1102;104108;-84
2023/10/12 04:07:16;;;;;;;17.57;4.93;;;;;;;9.95;58.80;101150.89;124905;1102;104281;-84
2023/10/12 04:09:54;;;;;;;15.33;4.90;;;;;;;9.94;58.80;101150.81;124806;1101;104198;-79
2023/10/12 04:12:49;;;;;;;17.23;4.40;;;;;;;9.96;58.88;101167.55;124699;1102;117846;-79
2023/10/12 04:15:34;;;;;;;;;;;;;;;9.96;59.86;101162.30;124798;1102;102985;-80
2023/10/12 04:18:07;;;;;;;18.77;4.40;;;;;;;9.95;59.67;101160.49;124840;1102;104178;-80
2023/10/12 04:20:40;;;;;;;17.23;5.97;;;;;;;9.95;59.21;101152.63;124856;1102;104192;-80
2023/10/12 04:23:43;;;;;;;13.37;4.30;;;;;;;9.95;59.22;101161.38;124789;1102;102101;-80
2023/10/12 04:26:27;;;;;;;14.10;4.40;;;;;;;9.95;59.89;101153.52;124800;1102;102035;-79
2023/10/12 04:28:58;;;;;;;15.83;4.80;;;;;;;9.96;59.98;101155.33;125100;1102;102090;-82
2023/10/12 04:31:48;;;;;;;13.87;4.80;;;;;;;9.99;60.23;101157.20;125077;1102;101928;-81
2023/10/12 04:34:26;;;;;;;14.23;4.63;;;;;;;10.00;60.27;101162.53;125082;1102;104175;-81
2023/10/12 04:37:08;;;;;;;12.90;4.37;;;;;;;10.03;59.86;101159.13;125137;1101;102084;-81
2023/10/12 04:39:48;;;;;;;11.03;4.00;;;;;;;10.06;60.50;101160.17;125038;1102;104178;-80
2023/10/12 04:42:23;;;;;;;14.40;4.70;;;;;;;10.11;60.48;101160.39;124962;1102;103334;-80
2023/10/12 04:45:03;;;;;;;18.27;4.50;;;;;;;10.13;60.14;101165.71;125009;1102;104127;-83
2023/10/12 04:47:35;;;;;;;14.53;4.30;;;;;;;10.16;60.66;101172.02;124970;1102;102554;-83
2023/10/12 04:50:08;;;;;;;13.33;4.50;;;;;;;10.18;60.58;101177.34;124731;1102;102051;-84
2023/10/12 04:53:06;;;;;;;10.93;4.50;;;;;;;10.21;60.51;101178.38;124939;1102;104175;-79
2023/10/12 04:55:34;;;;;;;12.20;4.70;;;;;;;10.26;60.74;101181.22;124997;1102;102268;-80
2023/10/12 04:58:30;;;;;;;13.07;4.47;;;;;;;10.31;61.22;101181.44;125004;1102;101938;-85
2023/10/12 05:01:19;;;;;;;8.87;4.10;;;;;;;10.37;60.74;101187.91;124869;1102;104179;-84
2023/10/12 05:06:46;;;;;;;16.93;4.63;;;;;;;10.53;61.04;101189.55;125071;1101;102146;-81
2023/10/12 05:09:18;;;;;;;10.43;3.77;;;;;;;10.61;61.41;101192.50;125021;1101;103191;-81
2023/10/12 05:11:49;;;;;;;16.13;3.87;;;;;;;10.70;61.21;101197.29;125124;1102;102876;-82
2023/10/12 05:14:20;;;;;;;6.73;3.20;;;;;;;10.77;61.55;101200.27;125147;1102;102535;-80
2023/10/12 05:16:54;;;;;;;13.87;3.90;;;;;;;10.85;61.80;101195.38;125393;1102;102087;-83
2023/10/12 05:19:33;;;;;;;16.23;4.27;;;;;;;10.92;61.60;101194.84;125096;1102;102650;-82
2023/10/12 05:22:06;;;;;;;6.93;3.60;;;;;;;11.00;62.02;101189.93;125095;1102;101961;-84
2023/10/12 05:24:38;;;;;;;8.83;3.40;;;;;;;11.08;61.82;101204.30;125003;1102;101927;-87
2023/10/12 05:27:19;;;;;;;7.27;3.33;;;;;;;11.13;62.23;101200.13;125273;1102;102031;-83
2023/10/12 05:29:59;;;;;;;10.80;3.77;;;;;;;11.21;62.05;101200.48;124978;1102;104175;-84
2023/10/12 05:32:42;;;;;;;7.80;3.40;;;;;;;11.27;62.22;101203.37;124778;1102;102422;-84
2023/10/12 05:35:15;;;;;;;9.00;3.70;;;;;;;11.35;62.32;101203.72;124812;1102;102359;-81
2023/10/12 05:37:50;;;;;;;8.50;4.00;;;;;;;11.46;62.10;101205.07;125142;1102;104190;-85
2023/10/12 05:40:34;;;;;;;9.87;3.67;;;;;;;11.56;62.47;101209.02;124890;1102;102000;-85
2023/10/12 05:43:19;;;;;;;7.60;3.53;;;;;;;11.65;62.26;101203.23;124825;1102;102300;-83
2023/10/12 05:45:50;;;;;;;9.97;3.47;;;;;;;11.75;62.69;101202.80;125341;1102;102151;-81
2023/10/12 05:48:22;;;;;;;9.93;3.80;;;;;;;11.83;62.33;101205.75;125466;1102;104230;-83
2023/10/12 05:50:58;;;;;;;7.15;3.58;;;;;;;11.93;62.69;101207.06;124713;1102;104379;-84
2023/10/12 05:53:34;;;;;;;7.00;3.63;;;;;;;11.99;62.58;101202.05;126029;1101;101806;-84
2023/10/12 05:56:07;;;;;;;11.77;3.93;;;;;;;12.05;62.64;101208.45;126008;1101;104102;-84
2023/10/12 05:58:39;;;;;;;6.90;3.57;;;;;;;12.12;62.89;101203.45;125352;1102;104201;-85
2023/10/12 06:01:31;;;;;;;9.20;3.80;;;;;;;12.17;62.78;101197.55;124866;1102;102015;-83
2023/10/12 06:04:05;;;;;;;10.23;4.10;;;;;;;12.27;63.21;101201.44;124794;1102;104270;-82
2023/10/12 06:06:48;;;;;;;;;;;;;;;12.34;62.60;101202.56;124910;1102;101822;-83
2023/10/12 06:09:26;;;;;;;10.47;3.80;;;;;;;12.43;62.73;101200.30;127246;1101;101229;-87
2023/10/12 06:12:06;;;;;;;9.80;3.70;;;;;;;12.49;62.71;101184.75;125976;1101;101965;-82
2023/10/12 06:14:38;;;;;;;9.93;3.80;;;;;;;12.56;62.77;101191.17;124860;1102;102100;-78
2023/10/12 06:17:27;;;;;;;7.20;3.60;;;;;;;12.64;62.70;101183.56;124802;1102;102059;-80
2023/10/12 06:20:11;;;;;;;9.70;3.43;;;;;;;12.73;62.79;101181.25;124643;1102;104245;-76
2023/10/12 06:22:42;;;;;;;10.83;3.63;;;;;;;12.84;62.71;101189.55;124558;1102;104195;-76
2023/10/12 06:25:18;;;;;;;9.87;4.63;;;;;;;12.90;62.82;101187.16;124638;1102;104169;-75
2023/10/12 06:27:49;;;;;;;13.13;5.40;;;;;;;12.95;62.33;101186.50;124685;1101;104267;-80
2023/10/12 06:30:23;;;;;;;9.53;4.20;;;;;;;13.05;62.83;101186.84;124803;1101;102225;-81
2023/10/12 06:32:59;;;;;;;11.10;4.00;;;;;;;13.15;62.68;101195.96;124757;1101;102239;-77
2023/10/12 06:35:34;;;;;;;10.13;3.63;;;;;;;13.25;62.82;101206.01;124763;1102;104210;-79
2023/10/12 06:38:23;;;;;;;10.23;3.73;;;;;;;13.35;62.16;101191.44;124699;1102;104300;-83
2023/10/12 06:41:27;;;;;;;9.27;3.47;;;;;;;13.39;62.87;101183.70;124783;1102;102240;-79
2023/10/12 06:44:12;;;;;;;8.93;3.70;;;;;;;13.60;62.32;101185.28;124765;1102;104291;-80
2023/10/12 06:46:46;;;;;;;7.27;3.70;;;;;;;13.72;62.78;101192.72;124986;1102;102396;-79
2023/10/12 06:49:23;;;;;;;6.63;3.50;;;;;;;13.82;62.18;101202.72;124848;1102;104278;-83
2023/10/12 06:52:00;;;;;;;8.07;3.80;;;;;;;13.90;61.91;101195.06;124893;1102;101980;-78
2023/10/12 06:54:39;;;;;;;6.40;3.57;;;;;;;13.97;62.17;101191.80;124520;1102;101958;-80
2023/10/12 07:00:33;;;;;;;7.93;3.20;;;;;;;14.22;61.85;101189.95;124756;1102;104201;-80
2023/10/12 07:03:08;;;;;;;7.53;3.60;;;;;;;14.29;62.18;101187.56;124745;1102;102075;-80
2023/10/12 07:05:44;;;;;;;8.57;3.20;;;;;;;14.38;61.62;101179.93;124591;1102;118542;-78
2023/10/12 07:08:16;;;;;;;10.53;3.73;;;;;;;14.45;61.08;101180.12;124287;1102;104383;-75
2023/10/12 07:10:59;;;;;;;7.27;3.47;;;;;;;14.53;60.51;101175.95;124716;1102;102107;-82
2023/10/12 07:13:31;;;;;;;11.87;3.60;;;;;;;14.59;60.99;101170.86;125395;1102;102321;-84
2023/10/12 07:16:02;;;;;;;7.77;3.37;;;;;;;14.64;60.35;101166.63;125060;1101;104223;-87
2023/10/12 07:18:42;;;;;;;10.60;3.27;;;;;;;14.74;60.76;101167.83;127048;1101;102383;-83
2023/10/12 07:21:20;;;;;;;6.83;2.80;;;;;;;14.82;60.61;101178.59;124877;1102;102086;-81
2023/10/12 07:23:54;;;;;;;8.17;3.17;;;;;;;14.88;59.93;101170.84;124623;1102;102064;-79
2023/10/12 07:26:31;;;;;;;9.33;3.52;;;;;;;14.94;60.50;101173.66;125771;1102;101820;-77
2023/10/12 07:29:19;;;;;;;7.27;3.17;;;;;;;15.04;59.31;101180.13;125716;1101;101922;-77
2023/10/12 07:31:59;;;;;;;8.47;3.40;;;;;;;15.14;59.78;101174.22;124501;1102;104229;-78
2023/10/12 07:34:36;;;;;;;9.13;3.40;;;;;;;15.25;59.35;101167.51;124722;1102;104303;-81
2023/10/12 07:37:08;;;;;;;6.67;3.00;;;;;;;15.37;60.01;101164.28;124778;1102;104268;-82
2023/10/12 07:39:42;;;;;;;12.93;3.17;;;;;;;15.48;59.50;101166.32;124686;1102;101871;-84
2023/10/12 07:42:14;;;;;;;11.70;3.23;;;;;;;15.57;59.56;101155.98;124857;1102;104673;-80
2023/10/12 07:44:54;;;;;;;8.47;3.27;;;;;;;15.69;58.92;101155.37;124870;1102;101919;-87
2023/10/12 07:47:40;;;;;;;10.07;3.50;;;;;;;15.82;58.62;101149.59;126124;1101;104220;-84
2023/10/12 07:50:25;;;;;;;9.80;3.30;;;;;;;15.92;58.63;101142.75;126018;1102;102093;-82
2023/10/12 07:53:06;;;;;;;5.87;2.80;;;;;;;16.05;57.89;101146.58;127015;1101;101594;-83
2023/10/12 07:55:42;;;;;;;7.83;3.17;;;;;;;16.13;58.17;101135.33;124891;1102;104214;-80
2023/10/12 07:58:18;;;;;;;5.17;3.10;;;;;;;16.25;58.43;101133.81;125970;1101;104217;-86
2023/10/12 08:01:19;;;;;;;9.40;3.30;;;;;;;16.37;57.62;101128.78;125457;1101;102425;-82
2023/10/12 08:03:58;;;;;;;10.97;3.27;;;;;;;16.52;57.38;101126.47;125430;1102;102140;-85
2023/10/12 08:06:42;;;;;;;11.53;3.43;;;;;;;16.61;57.79;101128.44;125802;1102;104319;-82
2023/10/12 08:09:47;;;;;;;11.53;3.58;;;;;;;16.74;57.24;101123.39;125254;1102;104224;-77
2023/10/12 08:12:27;;;;;;;9.77;3.60;;;;;;;16.88;56.64;101125.47;125944;1102;104204;-83
2023/10/12 08:15:09;;;;;;;7.27;2.60;;;;;;;17.01;56.34;101112.45;124870;1102;104287;-86
2023/10/12 08:17:45;;;;;;;8.93;3.17;;;;;;;17.16;56.92;101117.17;124941;1101;104102;-83
2023/10/12 08:23:17;;;;;;;12.45;3.05;;;;;;;17.43;55.67;101119.41;124894;1101;104245;-84
2023/10/12 08:25:57;;;;;;;6.37;3.23;;;;;;;17.58;55.37;101108.17;124519;1102;104175;-79
2023/10/12 08:28:36;;;;;;;10.23;2.63;;;;;;;17.77;55.40;101114.67;124639;1102;102294;-83
2023/10/12 08:31:15;;;;;;;6.93;2.63;;;;;;;17.87;55.02;101107.73;124826;1102;102081;-80
2023/10/12 08:33:58;;;;;;;7.53;3.13;;;;;;;18.00;54.45;101114.14;125957;1101;102128;-82
2023/10/12 08:36:29;;;;;;;6.80;2.77;;;;;;;18.13;54.31;101102.85;125409;1102;101792;-82
2023/10/12 08:39:08;;;;;;;5.90;3.13;;;;;;;18.21;54.21;101098.53;124925;1102;101984;-84
2023/10/12 08:42:19;;;;;;;11.18;3.10;;;;;;;18.33;53.32;101090.73;127034;1101;101984;-82
2023/10/12 08:44:50;;;;;;;9.30;2.87;;;;;;;18.46;52.95;101081.14;125969;1102;102073;-81
2023/10/12 08:47:25;;;;;;;6.83;2.80;;;;;;;18.54;52.45;101089.20;124651;1102;102347;-79
2023/10/12 08:50:01;;;;;;;9.27;2.97;;;;;;;18.60;52.36;101077.77;124635;1102;102182;-81
2023/10/12 08:52:38;;;;;;;16.53;3.87;;;;;;;18.66;51.92;101065.44;125992;1102;104242;-79
2023/10/12 08:55:12;;;;;;;9.60;3.00;;;;;;;18.76;51.43;101068.20;124528;1102;102249;-78
2023/10/12 08:57:55;;;;;;;9.17;3.20;;;;;;;18.83;51.80;101070.95;124656;1102;101840;-78
2023/10/12 09:00:42;;;;;;;8.20;3.10;;;;;;;18.96;51.86;101081.75;124743;1102;104198;-80
2023/10/12 09:03:24;;;;;;;12.23;3.30;;;;;;;19.06;50.85;101064.11;124586;1102;104245;-81
2023/10/12 09:12:12;;;;;;;10.53;3.20;;;;;;;19.29;50.28;101054.60;124899;1102;101973;-80
2023/10/12 09:14:43;;;;;;;7.37;3.30;;;;;;;19.35;50.08;101048.42;125394;1102;101962;-81
2023/10/12 09:17:26;;;;;;;7.20;3.13;;;;;;;19.44;50.26;101055.59;124957;1102;101971;-79
2023/10/12 09:20:26;;;;;;;6.43;3.00;;;;;;;19.47;49.33;101047.64;125859;1101;104265;-78
2023/10/12 09:23:05;;;;;;;6.07;3.00;;;;;;;19.54;48.66;101044.13;124879;1102;102122;-80
2023/10/12 09:33:05;;;;;;;10.10;3.37;;;;;;;19.74;47.64;101029.20;126105;1102;102688;-81
2023/10/12 09:35:55;;;;;;;8.93;2.93;;;;;;;19.80;47.51;101020.37;125222;1102;101835;-82
2023/10/12 09:38:29;;;;;;;7.17;2.87;;;;;;;19.85;47.28;101007.09;125084;1102;104185;-84
2023/10/12 09:41:03;;;;;;;9.20;3.00;;;;;;;19.92;48.13;101014.25;124822;1102;104195;-85
2023/10/12 09:43:38;;;;;;;9.15;3.02;;;;;;;19.99;47.39;101007.17;124789;1102;102042;-82
2023/10/12 09:46:13;;;;;;;9.73;2.50;;;;;;;20.04;47.00;100997.42;125752;1101;102154;-81
2023/10/12 09:48:44;;;;;;;8.47;2.80;;;;;;;20.10;46.86;100998.36;124609;1102;104166;-79
2023/10/12 09:51:15;;;;;;;6.03;2.70;;;;;;;20.17;47.19;100985.95;125420;1102;102118;-81
2023/10/12 09:53:58;;;;;;;11.80;3.27;;;;;;;20.20;46.46;100979.75;125419;1102;101911;-85
2023/10/12 09:56:33;;;;;;;8.53;2.93;;;;;;;20.22;46.32;100981.52;125277;1102;102012;-82
2023/10/12 09:59:13;;;;;;;19.47;3.30;;;;;;;20.29;46.57;100974.45;124849;1102;104232;-82
2023/10/12 10:01:49;;;;;;;7.70;2.47;;;;;;;20.37;46.65;100967.36;116298;1101;10001173;-82
2023/10/12 10:04:28;;;;;;;6.07;2.90;;;;;;;20.47;46.33;100945.19;125199;1102;104178;-78
2023/10/12 10:09:53;;;;;;;12.10;2.70;;;;;;;20.61;45.05;100942.52;124750;1102;102912;-82
2023/10/12 10:12:23;;;;;;;6.45;2.83;;;;;;;20.62;45.51;100943.42;125459;1102;102129;-84
2023/10/12 10:15:00;;;;;;;5.13;2.63;;;;;;;20.61;44.83;100933.64;126075;1101;104098;-83
2023/10/12 10:17:36;;;;;;;9.20;2.97;;;;;;;20.64;45.54;100931.89;126091;1102;101830;-85
2023/10/12 10:20:45;;;;;;;7.53;2.80;;;;;;;20.70;45.17;100936.35;125313;1103;102693;-79
2023/10/12 10:23:14;;;;;;;8.40;3.10;;;;;;;20.63;44.85;100913.19;124704;1102;101908;-77
2023/10/12 10:26:16;;;;;;;8.00;3.00;;;;;;;20.63;44.27;100923.86;124691;1106;102232;-85
2023/10/12 10:28:55;;;;;;;5.43;2.40;;;;;;;20.65;44.48;100914.14;124736;1102;102039;-79
2023/10/12 10:31:31;;;;;;;9.00;2.80;;;;;;;20.69;43.72;100901.69;126013;1101;108519;-79
2023/10/12 10:34:05;;;;;;;10.53;2.60;;;;;;;20.77;44.19;100898.14;125877;1100;102025;-77
2023/10/12 10:36:36;;;;;;;10.77;3.10;;;;;;;20.87;43.87;100900.81;125362;1102;104262;-80
2023/10/12 10:39:28;;;;;;;11.57;2.83;;;;;;;20.95;43.25;100886.56;124696;1102;102028;-83
2023/10/12 10:42:08;;;;;;;7.97;2.77;;;;;;;21.00;42.39;100886.56;124742;1105;104186;-82
2023/10/12 10:44:48;;;;;;;10.07;3.03;;;;;;;21.06;43.45;100885.67;125268;1102;101988;-85
2023/10/12 10:47:27;;;;;;;13.47;3.17;;;;;;;21.14;42.73;100876.75;125313;1102;104785;-83
2023/10/12 10:49:56;;;;;;;9.87;2.90;;;;;;;21.28;42.83;100882.05;126255;1102;104178;-88
2023/10/12 10:52:27;;;;;;;8.80;2.93;;;;;;;21.34;42.73;100870.48;125262;1105;106976;-82
2023/10/12 10:55:11;;;;;;;7.50;2.60;;;;;;;21.38;42.92;100869.59;126232;1101;104057;-82
2023/10/12 10:57:45;;;;;;;13.53;3.00;;;;;;;21.43;42.33;100870.46;125181;1102;102361;-83
2023/10/12 11:00:18;;;;;;;10.43;3.07;;;;;;;21.48;41.91;100863.31;126127;1105;101602;-84
2023/10/12 11:02:53;;;;;;;9.67;2.73;;;;;;;21.57;42.00;100857.10;126354;1102;102006;-80
2023/10/12 11:05:53;;;;;;;7.20;2.73;;;;;;;21.66;42.77;100853.48;124957;1105;102287;-77
2023/10/12 11:08:40;;;;;;;5.90;2.67;;;;;;;21.72;42.26;100843.69;125813;1102;101875;-82
2023/10/12 11:11:25;;;;;;;6.70;2.70;;;;;;;21.80;42.28;100848.98;126519;1101;102108;-84
2023/10/12 11:14:05;;;;;;;4.70;2.77;;;;;;;21.82;41.79;100838.30;126079;1102;104153;-79
2023/10/12 11:16:45;;;;;;;9.27;3.70;;;;;;;21.82;41.81;100832.95;126026;1102;104338;-81
2023/10/12 11:19:23;;;;;;;10.13;3.10;;;;;;;21.76;41.42;100823.18;126275;1101;102029;-80
2023/10/12 11:21:57;;;;;;;8.50;2.90;;;;;;;21.69;41.27;100819.66;126508;1101;101991;-81
2023/10/12 11:24:58;;;;;;;11.37;2.87;;;;;;;21.68;41.32;100830.35;125601;1105;101723;-82
2023/10/12 11:27:53;;;;;;;12.60;3.10;;;;;;;21.64;41.94;100832.12;125243;1106;101840;-87
2023/10/12 11:30:42;;;;;;;9.03;2.80;;;;;;;21.62;41.54;100820.58;125985;1104;104178;-82
2023/10/12 11:33:36;;;;;;;8.07;3.00;;;;;;;21.63;41.53;100822.36;125196;1103;107785;-82
2023/10/12 11:36:25;;;;;;;6.30;2.77;;;;;;;21.64;41.11;100818.78;125197;1102;101794;-79
2023/10/12 11:39:21;;;;;;;9.47;2.70;;;;;;;21.61;40.37;100812.57;125436;1103;102422;-85
2023/10/12 11:42:17;;;;;;;9.30;2.90;;;;;;;21.60;41.25;100811.70;125222;1102;101910;-80
2023/10/12 11:44:51;;;;;;;8.00;2.97;;;;;;;21.64;40.86;100804.55;126314;1102;101922;-82
2023/10/12 11:47:39;;;;;;;8.30;2.67;;;;;;;21.68;40.62;100798.31;126663;1102;104083;-85
2023/10/12 11:50:14;;;;;;;8.10;2.77;;;;;;;21.66;40.90;100794.73;125630;1102;101813;-85
2023/10/12 11:52:50;;;;;;;11.63;2.50;;;;;;;21.66;40.72;100805.42;125742;1101;104207;-83
2023/10/12 11:55:40;;;;;;;7.80;2.80;;;;;;;21.68;40.83;100800.98;126925;1101;101792;-83
2023/10/12 11:58:19;;;;;;;6.43;2.90;;;;;;;21.70;40.65;100793.83;125309;1102;104111;-88
2023/10/12 12:01:00;;;;;;;9.97;3.20;;;;;;;21.69;40.37;100787.62;125228;1102;104367;-84
2023/10/12 12:04:16;;;;;;;6.73;2.83;;;;;;;21.70;40.96;100794.71;126212;1102;104182;-81
2023/10/12 12:10:44;;;;;;;12.27;3.30;;;;;;;21.72;40.07;100784.02;125160;1106;104470;-87
2023/10/12 12:13:26;;;;;;;8.67;2.97;;;;;;;21.72;40.48;100778.68;126054;1101;104194;-83
2023/10/12 12:15:59;;;;;;;10.77;3.43;;;;;;;21.73;39.79;100767.11;126183;1102;102243;-81
2023/10/12 12:18:38;;;;;;;8.43;2.70;;;;;;;21.73;39.98;100767.98;125945;1101;104626;-83
2023/10/12 12:21:34;;;;;;;8.60;2.83;;;;;;;21.75;39.72;100770.65;126190;1102;101830;-81
2023/10/12 12:24:23;;;;;;;8.37;3.03;;;;;;;21.76;40.29;100761.75;126847;1102;102109;-78
2023/10/12 12:26:57;;;;;;;10.73;3.47;;;;;;;21.75;39.88;100759.97;126228;1102;101955;-86
2023/10/12 12:29:32;;;;;;;9.57;3.20;;;;;;;21.70;39.70;100751.11;125631;1105;101971;-85
2023/10/12 12:32:37;;;;;;;10.57;3.37;;;;;;;21.68;40.02;100751.12;126313;1101;101765;-83
2023/10/12 12:35:29;;;;;;;9.87;3.03;;;;;;;21.67;39.93;100743.11;126320;1102;108093;-82